createdAt,value
2019-03-21T00:01:13.459Z,74.91
2019-03-21T00:03:45.192Z,75.36
2019-03-21T00:06:16.951Z,75.33
2019-03-21T00:08:51.826Z,75.51
2019-03-21T00:12:04.662Z,75.20
2019-03-21T00:14:59.284Z,75.18
2019-03-21T00:17:33.825Z,75.76
2019-03-21T00:20:07.196Z,75.80
2019-03-21T00:22:40.372Z,76.55
2019-03-21T00:25:19.834Z,75.48
2019-03-21T00:27:51.097Z,74.82
2019-03-21T00:30:23.144Z,75.10
2019-03-21T00:32:58.460Z,75.56
2019-03-21T00:35:35.121Z,75.53
2019-03-21T00:38:06.252Z,75.51
2019-03-21T00:40:39.427Z,75.62
2019-03-21T00:43:11.769Z,75.11
2019-03-21T00:45:42.984Z,74.92
2019-03-21T00:48:21.460Z,75.39
2019-03-21T00:50:52.558Z,75.38
2019-03-21T00:53:23.671Z,74.74
2019-03-21T00:55:55.052Z,75.66
2019-03-21T00:58:26.244Z,75.42
2019-03-21T01:00:57.796Z,75.31
2019-03-21T01:03:28.908Z,75.62
2019-03-21T01:06:00.074Z,76.12
2019-03-21T01:08:42.611Z,75.98
2019-03-21T01:11:13.901Z,76.05
2019-03-21T01:13:51.066Z,76.04
2019-03-21T01:16:22.288Z,76.43
2019-03-21T01:18:53.415Z,76.67
2019-03-21T01:21:24.565Z,75.80
2019-03-21T01:23:55.802Z,76.05
2019-03-21T01:26:33.956Z,75.99
2019-03-21T01:29:05.149Z,75.42
2019-03-21T01:31:36.295Z,76.40
2019-03-21T01:34:07.427Z,75.61
2019-03-21T01:36:41.931Z,76.68
2019-03-21T01:39:38.328Z,76.58
2019-03-21T01:42:16.407Z,76.13
2019-03-21T01:44:47.426Z,76.65
2019-03-21T01:47:18.592Z,75.91
2019-03-21T01:50:03.178Z,76.08
2019-03-21T01:52:34.352Z,76.20
2019-03-21T01:55:06.346Z,76.39
2019-03-21T01:57:37.479Z,76.12
2019-03-21T02:00:11.982Z,76.12
2019-03-21T02:02:43.286Z,75.63
2019-03-21T02:05:14.437Z,75.40
2019-03-21T02:07:45.733Z,75.55
2019-03-21T02:10:18.901Z,75.64
2019-03-21T02:12:50.111Z,75.30
2019-03-21T02:15:21.278Z,76.17
2019-03-21T02:17:52.501Z,75.97
2019-03-21T02:20:23.610Z,76.45
2019-03-21T02:22:54.742Z,76.24
2019-03-21T02:25:27.733Z,76.65
2019-03-21T02:27:58.962Z,76.02
2019-03-21T02:30:34.748Z,75.83
2019-03-21T02:33:12.377Z,75.87
2019-03-21T02:35:43.499Z,76.03
2019-03-21T02:38:14.543Z,75.79
2019-03-21T02:40:47.732Z,76.19
2019-03-21T02:43:18.950Z,75.85
2019-03-21T02:45:55.155Z,75.84
2019-03-21T02:48:26.419Z,76.19
2019-03-21T02:50:58.605Z,75.13
2019-03-21T02:53:30.794Z,75.38
2019-03-21T02:56:02.082Z,75.67
2019-03-21T02:58:33.175Z,75.62
2019-03-21T03:01:04.349Z,75.53
2019-03-21T03:03:35.394Z,76.25
2019-03-21T03:06:06.725Z,76.12
2019-03-21T03:08:37.918Z,75.83
2019-03-21T03:11:10.933Z,75.77
2019-03-21T03:13:43.249Z,76.16
2019-03-21T03:16:14.489Z,76.14
2019-03-21T03:18:46.641Z,75.89
2019-03-21T03:21:18.707Z,76.04
2019-03-21T03:23:49.928Z,76.22
2019-03-21T03:26:25.566Z,75.77
2019-03-21T03:28:56.607Z,76.35
2019-03-21T03:31:30.954Z,76.01
2019-03-21T03:34:02.276Z,76.01
2019-03-21T03:36:33.650Z,76.52
2019-03-21T03:39:07.871Z,75.84
2019-03-21T03:41:46.726Z,75.74
2019-03-21T03:44:17.982Z,75.71
2019-03-21T03:46:53.255Z,75.53
2019-03-21T03:49:24.365Z,75.29
2019-03-21T03:51:55.568Z,75.73
2019-03-21T03:54:32.790Z,75.90
2019-03-21T03:57:04.107Z,76.37
2019-03-21T03:59:35.306Z,76.01
2019-03-21T04:02:06.469Z,76.20
2019-03-21T04:04:37.591Z,75.89
2019-03-21T04:07:08.719Z,76.63
2019-03-21T04:09:39.838Z,76.27
2019-03-21T04:12:11.040Z,75.79
2019-03-21T04:14:46.091Z,75.92
2019-03-21T04:17:23.456Z,76.28
2019-03-21T04:19:54.594Z,76.09
2019-03-21T04:22:25.812Z,75.91
2019-03-21T04:24:56.918Z,75.48
2019-03-21T04:27:42.566Z,75.90
2019-03-21T04:30:14.551Z,76.26
2019-03-21T04:33:17.975Z,75.74
2019-03-21T04:36:08.427Z,75.98
2019-03-21T04:38:39.678Z,76.07
2019-03-21T04:41:10.793Z,75.96
2019-03-21T04:43:52.476Z,75.72
2019-03-21T04:46:23.559Z,75.67
2019-03-21T04:49:06.820Z,75.50
2019-03-21T04:51:38.969Z,75.16
2019-03-21T04:54:11.160Z,75.62
2019-03-21T04:56:42.412Z,74.96
2019-03-21T04:59:19.739Z,74.97
2019-03-21T05:01:50.888Z,75.52
2019-03-21T05:04:22.084Z,74.97
2019-03-21T05:07:08.751Z,75.91
2019-03-21T05:09:39.904Z,75.62
2019-03-21T05:12:13.088Z,75.13
2019-03-21T05:14:44.301Z,75.53
2019-03-21T05:17:20.866Z,76.35
2019-03-21T05:19:52.035Z,76.44
2019-03-21T05:22:23.324Z,75.18
2019-03-21T05:25:03.290Z,75.02
2019-03-21T05:27:50.701Z,75.72
2019-03-21T05:30:37.715Z,75.39
2019-03-21T05:33:17.841Z,75.71
2019-03-21T05:36:06.557Z,76.00
2019-03-21T05:38:37.866Z,75.51
2019-03-21T05:41:21.050Z,74.82
2019-03-21T05:43:55.884Z,76.18
2019-03-21T05:46:27.412Z,75.62
2019-03-21T05:49:13.466Z,75.56
2019-03-21T05:51:48.161Z,74.96
2019-03-21T05:54:19.439Z,74.92
2019-03-21T05:56:50.639Z,75.42
2019-03-21T05:59:24.903Z,75.02
2019-03-21T06:01:58.058Z,74.91
2019-03-21T06:04:33.189Z,75.09
2019-03-21T06:07:30.431Z,74.83
2019-03-21T06:10:02.676Z,75.02
2019-03-21T06:13:03.996Z,74.72
2019-03-21T06:15:39.886Z,74.74
2019-03-21T06:18:47.104Z,74.76
2019-03-21T06:21:54.663Z,74.46
2019-03-21T06:24:54.172Z,74.46
2019-03-21T06:27:40.745Z,73.76
2019-03-21T06:30:12.297Z,73.11
2019-03-21T06:32:43.523Z,72.82
2019-03-21T06:35:22.087Z,72.19
2019-03-21T06:37:55.251Z,71.82
2019-03-21T06:40:39.392Z,71.08
2019-03-21T06:43:21.599Z,70.13
2019-03-21T06:45:52.754Z,68.72
2019-03-21T06:48:24.888Z,67.64
2019-03-21T06:50:56.319Z,67.77
2019-03-21T06:53:27.603Z,67.60
2019-03-21T06:56:15.755Z,67.11
2019-03-21T06:58:49.143Z,66.85
2019-03-21T07:01:26.445Z,66.05
2019-03-21T07:04:06.596Z,65.69
2019-03-21T07:07:08.344Z,65.78
2019-03-21T07:09:40.196Z,65.73
2019-03-21T07:12:11.379Z,64.88
2019-03-21T07:15:05.870Z,63.86
2019-03-21T07:17:37.011Z,63.58
2019-03-21T07:20:18.349Z,64.31
2019-03-21T07:22:49.880Z,64.96
2019-03-21T07:25:20.991Z,65.12
2019-03-21T07:27:52.028Z,65.01
2019-03-21T07:30:23.286Z,64.70
2019-03-21T07:32:54.414Z,64.11
2019-03-21T07:35:25.556Z,63.98
2019-03-21T07:37:56.676Z,63.88
2019-03-21T07:40:27.971Z,63.57
2019-03-21T07:42:59.003Z,63.03
2019-03-21T07:45:30.132Z,61.86
2019-03-21T07:48:09.331Z,62.33
2019-03-21T07:50:40.576Z,61.96
2019-03-21T07:53:11.778Z,61.75
2019-03-21T07:55:42.932Z,61.70
2019-03-21T07:58:14.057Z,61.14
2019-03-21T08:00:45.215Z,59.43
2019-03-21T08:03:16.358Z,59.72
2019-03-21T08:05:54.901Z,59.35
2019-03-21T08:08:26.073Z,59.13
2019-03-21T08:10:57.229Z,59.45
2019-03-21T08:13:34.194Z,59.54
2019-03-21T08:16:08.437Z,58.89
2019-03-21T08:18:39.543Z,58.81
2019-03-21T08:21:10.732Z,58.48
2019-03-21T08:24:00.342Z,58.84
2019-03-21T08:26:31.574Z,57.45
2019-03-21T08:29:04.800Z,56.40
2019-03-21T08:31:35.920Z,55.92
2019-03-21T08:34:07.062Z,55.26
2019-03-21T08:36:38.257Z,55.49
2019-03-21T08:39:31.232Z,54.68
2019-03-21T08:42:02.480Z,54.42
2019-03-21T08:44:33.594Z,54.21
2019-03-21T08:47:04.799Z,53.55
2019-03-21T08:49:36.019Z,54.31
2019-03-21T08:52:28.134Z,53.54
2019-03-21T08:54:59.295Z,53.38
2019-03-21T08:57:45.074Z,52.55
2019-03-21T09:00:17.300Z,52.61
2019-03-21T09:02:48.443Z,51.47
2019-03-21T09:05:33.840Z,51.22
2019-03-21T09:08:10.053Z,51.96
2019-03-21T09:10:41.273Z,51.66
2019-03-21T09:13:13.603Z,50.95
2019-03-21T09:15:44.759Z,50.84
2019-03-21T09:18:15.963Z,50.24
2019-03-21T09:20:47.230Z,49.67
2019-03-21T09:23:18.508Z,49.09
2019-03-21T09:25:55.485Z,49.18
2019-03-21T09:28:26.730Z,47.85
2019-03-21T09:30:57.884Z,48.22
2019-03-21T09:33:29.058Z,47.72
2019-03-21T09:36:00.164Z,46.78
2019-03-21T09:38:41.300Z,47.77
2019-03-21T09:41:12.565Z,47.63
2019-03-21T09:43:49.939Z,47.51
2019-03-21T09:46:26.843Z,47.61
2019-03-21T09:49:17.365Z,48.06
2019-03-21T09:51:55.314Z,47.47
2019-03-21T09:54:26.600Z,47.40
2019-03-21T09:56:57.808Z,48.10
2019-03-21T09:59:29.232Z,48.62
2019-03-21T10:02:01.489Z,47.59
2019-03-21T10:04:43.231Z,47.37
2019-03-21T10:07:44.141Z,46.53
2019-03-21T10:10:29.493Z,47.03
2019-03-21T10:13:06.117Z,46.28
2019-03-21T10:15:37.293Z,47.00
2019-03-21T10:18:08.485Z,46.61
2019-03-21T10:20:57.720Z,46.50
2019-03-21T10:23:30.973Z,46.05
2019-03-21T10:26:02.302Z,46.63
2019-03-21T10:28:33.618Z,45.60
2019-03-21T10:31:08.945Z,45.46
2019-03-21T10:33:40.126Z,45.12
2019-03-21T10:36:11.329Z,45.41
2019-03-21T10:38:42.555Z,45.14
2019-03-21T10:41:13.657Z,43.94
2019-03-21T10:44:08.638Z,44.38
2019-03-21T10:46:39.863Z,42.95
2019-03-21T10:49:11.156Z,43.72
2019-03-21T10:51:56.613Z,43.78
2019-03-21T10:54:33.450Z,42.98
2019-03-21T10:57:05.692Z,41.63
2019-03-21T10:59:37.055Z,41.28
2019-03-21T11:02:08.230Z,42.97
2019-03-21T11:04:39.492Z,42.22
2019-03-21T11:07:13.680Z,42.78
2019-03-21T11:09:44.868Z,42.15
2019-03-21T11:12:18.002Z,42.57
2019-03-21T11:14:49.224Z,42.19
2019-03-21T11:17:22.362Z,43.26
2019-03-21T11:19:54.529Z,42.95
2019-03-21T11:22:25.658Z,41.81
2019-03-21T11:24:56.969Z,43.47
2019-03-21T11:27:33.878Z,43.16
2019-03-21T11:30:15.702Z,43.49
2019-03-21T11:32:40.621Z,42.55
2019-03-21T11:35:14.020Z,42.85
2019-03-21T11:37:45.159Z,42.40
2019-03-21T11:40:18.212Z,42.92
2019-03-21T11:42:49.446Z,43.07
2019-03-21T11:45:24.105Z,42.28
2019-03-21T11:48:19.243Z,41.78
2019-03-21T11:50:59.115Z,42.60
2019-03-21T11:53:30.299Z,42.44
2019-03-21T11:56:01.610Z,41.90
2019-03-21T11:58:32.747Z,40.91
2019-03-21T12:01:03.954Z,41.13
2019-03-21T12:04:02.270Z,41.92
2019-03-21T12:06:33.762Z,41.18
2019-03-21T12:09:07.179Z,41.54
2019-03-21T12:11:45.656Z,41.91
2019-03-21T12:14:24.706Z,41.78
2019-03-21T12:16:56.143Z,41.96
2019-03-21T12:19:27.489Z,40.63
2019-03-21T12:22:02.277Z,39.67
2019-03-21T12:24:42.534Z,39.96
2019-03-21T12:27:37.621Z,39.50
2019-03-21T12:30:10.942Z,40.55
2019-03-21T12:32:42.119Z,40.49
2019-03-21T12:35:13.387Z,39.51
2019-03-21T12:37:45.588Z,39.19
2019-03-21T12:40:24.262Z,39.34
2019-03-21T12:43:05.065Z,39.25
2019-03-21T12:45:49.943Z,39.66
2019-03-21T12:48:23.022Z,39.13
2019-03-21T12:51:04.622Z,39.84
2019-03-21T12:54:05.776Z,39.22
2019-03-21T12:56:48.145Z,38.41
2019-03-21T12:59:19.316Z,39.46
2019-03-21T13:01:50.561Z,38.79
2019-03-21T13:04:36.544Z,38.39
2019-03-21T13:07:17.312Z,37.31
2019-03-21T13:09:48.617Z,37.71
2019-03-21T13:12:19.813Z,38.38
2019-03-21T13:14:51.801Z,38.55
2019-03-21T13:17:24.357Z,38.10
2019-03-21T13:19:55.689Z,38.10
2019-03-21T13:22:31.400Z,38.80
2019-03-21T13:25:08.127Z,39.42
2019-03-21T13:27:45.032Z,39.59
2019-03-21T13:30:16.631Z,39.00
2019-03-21T13:32:49.857Z,39.45
2019-03-21T13:35:32.117Z,39.25
2019-03-21T13:37:54.518Z,39.08
2019-03-21T13:40:26.080Z,38.73
2019-03-21T13:43:01.701Z,38.75
2019-03-21T13:45:33.615Z,39.61
2019-03-21T13:48:06.452Z,39.96
2019-03-21T13:51:08.819Z,39.87
2019-03-21T13:53:58.645Z,40.36
2019-03-21T13:56:37.930Z,39.58
2019-03-21T13:59:03.053Z,39.83
2019-03-21T14:01:35.353Z,40.82
2019-03-21T14:04:12.742Z,41.22
2019-03-21T14:06:57.379Z,41.08
2019-03-21T14:09:29.058Z,41.12
2019-03-21T14:12:00.537Z,41.17
2019-03-21T14:14:31.806Z,40.99
2019-03-21T14:17:05.077Z,41.73
2019-03-21T14:19:36.463Z,40.74
2019-03-21T14:22:23.866Z,41.64
2019-03-21T14:24:58.725Z,42.56
2019-03-21T14:27:30.295Z,41.37
2019-03-21T14:30:03.668Z,41.41
2019-03-21T14:32:36.024Z,42.15
2019-03-21T14:35:08.102Z,41.00
2019-03-21T14:37:39.415Z,41.16
2019-03-21T14:40:14.735Z,41.78
2019-03-21T14:42:46.498Z,41.41
2019-03-21T14:45:45.593Z,41.82
2019-03-21T14:51:32.291Z,42.06
2019-03-21T14:54:14.844Z,42.12
2019-03-21T14:56:51.920Z,40.75
2019-03-21T14:59:23.511Z,41.19
2019-03-21T15:02:29.501Z,41.29
2019-03-21T15:05:07.077Z,41.92
2019-03-21T15:07:44.046Z,41.80
2019-03-21T15:10:17.651Z,41.69
2019-03-21T15:12:49.352Z,42.42
2019-03-21T15:15:23.807Z,41.01
2019-03-21T15:17:58.530Z,41.04
2019-03-21T15:20:28.987Z,41.86
2019-03-21T15:23:01.146Z,41.12
2019-03-21T15:25:42.415Z,41.72
2019-03-21T15:28:13.472Z,40.99
2019-03-21T15:30:51.539Z,41.25
2019-03-21T15:33:26.637Z,41.97
2019-03-21T15:36:04.790Z,41.55
2019-03-21T15:38:36.042Z,41.80
2019-03-21T15:41:07.205Z,41.98
2019-03-21T15:43:46.329Z,41.57
2019-03-21T15:46:17.510Z,41.96
2019-03-21T15:49:12.749Z,42.31
2019-03-21T15:51:43.865Z,42.67
2019-03-21T15:55:03.095Z,42.51
2019-03-21T15:57:34.311Z,42.86
2019-03-21T16:00:07.688Z,42.79
2019-03-21T16:02:52.087Z,44.11
2019-03-21T16:05:23.400Z,42.71
2019-03-21T16:08:00.717Z,42.43
2019-03-21T16:10:33.880Z,44.25
2019-03-21T16:13:05.297Z,42.80
2019-03-21T16:15:42.087Z,44.02
2019-03-21T16:18:33.933Z,44.15
2019-03-21T16:21:06.175Z,43.76
2019-03-21T16:23:37.571Z,43.34
2019-03-21T16:26:08.853Z,43.21
2019-03-21T16:28:53.299Z,43.89
2019-03-21T16:31:25.685Z,44.05
2019-03-21T16:34:04.978Z,44.62
2019-03-21T16:36:45.456Z,44.89
2019-03-21T16:39:16.619Z,44.91
2019-03-21T16:41:47.806Z,45.60
2019-03-21T16:44:18.984Z,45.62
2019-03-21T16:47:13.917Z,45.62
2019-03-21T16:49:55.493Z,46.03
2019-03-21T16:52:54.457Z,46.43
2019-03-21T16:55:27.734Z,46.51
2019-03-21T16:58:02.029Z,47.74
2019-03-21T17:00:46.588Z,47.21
2019-03-21T17:03:22.874Z,47.37
2019-03-21T17:06:15.777Z,47.95
2019-03-21T17:08:47.015Z,48.21
2019-03-21T17:11:25.558Z,48.37
2019-03-21T17:13:56.711Z,48.76
2019-03-21T17:16:28.927Z,49.33
2019-03-21T17:19:07.771Z,49.20
2019-03-21T17:21:39.026Z,49.27
2019-03-21T17:24:28.450Z,49.27
2019-03-21T17:26:49.293Z,49.54
2019-03-21T17:29:20.476Z,49.58
2019-03-21T17:31:57.525Z,49.90
2019-03-21T17:34:29.723Z,50.26
2019-03-21T17:37:00.868Z,50.70
2019-03-21T17:39:35.275Z,52.19
2019-03-21T17:42:07.535Z,51.86
2019-03-21T17:44:41.318Z,52.93
2019-03-21T17:47:12.569Z,52.69
2019-03-21T17:49:43.840Z,53.38
2019-03-21T17:52:25.441Z,53.39
2019-03-21T17:54:59.942Z,54.05
2019-03-21T17:57:58.896Z,53.80
2019-03-21T18:00:31.764Z,54.11
2019-03-21T18:03:05.339Z,54.08
2019-03-21T18:05:57.472Z,54.60
2019-03-21T18:08:31.800Z,54.43
2019-03-21T18:11:05.036Z,55.05
2019-03-21T18:13:40.951Z,55.31
2019-03-21T18:16:12.169Z,55.53
2019-03-21T18:18:43.436Z,55.79
2019-03-21T18:21:15.569Z,55.96
2019-03-21T18:23:46.796Z,56.14
2019-03-21T18:26:25.319Z,56.38
2019-03-21T18:29:07.608Z,56.59
2019-03-21T18:31:38.908Z,56.76
2019-03-21T18:34:23.377Z,56.99
2019-03-21T18:36:58.305Z,57.01
2019-03-21T18:39:50.674Z,57.43
2019-03-21T18:42:23.830Z,57.40
2019-03-21T18:44:56.509Z,57.45
2019-03-21T18:47:35.718Z,58.42
2019-03-21T18:50:09.330Z,58.39
2019-03-21T18:53:00.508Z,58.54
2019-03-21T18:55:35.050Z,58.98
2019-03-21T18:58:06.283Z,59.16
2019-03-21T19:00:37.625Z,59.56
2019-03-21T19:03:09.107Z,59.82
2019-03-21T19:05:40.324Z,59.90
2019-03-21T19:08:27.344Z,60.06
2019-03-21T19:10:58.957Z,60.54
2019-03-21T19:13:33.160Z,60.73
2019-03-21T19:16:06.608Z,60.99
2019-03-21T19:18:47.030Z,61.42
2019-03-21T19:21:19.181Z,61.60
2019-03-21T19:23:50.388Z,61.87
2019-03-21T19:26:21.683Z,61.73
2019-03-21T19:29:06.452Z,62.07
2019-03-21T19:31:37.690Z,62.36
2019-03-21T19:34:08.852Z,62.76
2019-03-21T19:36:50.205Z,62.51
2019-03-21T19:39:21.583Z,63.00
2019-03-21T19:41:53.802Z,63.15
2019-03-21T19:44:25.019Z,63.42
2019-03-21T19:46:56.245Z,63.04
2019-03-21T19:49:34.987Z,63.24
2019-03-21T19:52:21.304Z,63.51
2019-03-21T19:54:52.532Z,63.82
2019-03-21T19:57:23.789Z,63.92
2019-03-21T20:00:07.842Z,64.08
2019-03-21T20:02:45.076Z,63.86
2019-03-21T20:05:16.417Z,64.12
2019-03-21T20:07:50.541Z,64.37
2019-03-21T20:10:32.887Z,64.12
2019-03-21T20:13:04.377Z,64.29
2019-03-21T20:15:36.585Z,64.51
2019-03-21T20:18:07.929Z,64.68
2019-03-21T20:20:47.131Z,64.62
2019-03-21T20:23:18.414Z,64.91
2019-03-21T20:25:49.649Z,65.00
2019-03-21T20:28:20.930Z,65.27
2019-03-21T20:30:52.144Z,65.18
2019-03-21T20:33:23.442Z,65.49
2019-03-21T20:35:54.755Z,65.74
2019-03-21T20:38:26.020Z,65.56
2019-03-21T20:40:57.357Z,65.79
2019-03-21T20:43:28.779Z,66.02
2019-03-21T20:46:01.014Z,66.15
2019-03-21T20:48:30.366Z,66.32
2019-03-21T20:51:01.611Z,66.47
2019-03-21T20:53:34.874Z,66.86
2019-03-21T20:56:11.670Z,67.06
2019-03-21T20:58:46.124Z,66.89
2019-03-21T21:01:17.246Z,67.43
2019-03-21T21:03:54.982Z,67.01
2019-03-21T21:06:29.590Z,67.16
2019-03-21T21:09:03.321Z,67.55
2019-03-21T21:11:56.433Z,67.13
2019-03-21T21:14:54.587Z,67.68
2019-03-21T21:17:26.855Z,67.75
2019-03-21T21:19:59.140Z,67.73
2019-03-21T21:22:34.287Z,67.98
2019-03-21T21:25:07.183Z,67.91
2019-03-21T21:27:49.563Z,68.14
2019-03-21T21:30:17.037Z,68.10
2019-03-21T21:32:49.428Z,68.30
2019-03-21T21:35:26.806Z,68.28
2019-03-21T21:38:03.535Z,68.65
2019-03-21T21:40:34.755Z,68.64
2019-03-21T21:43:06.162Z,68.64
2019-03-21T21:45:51.660Z,68.80
2019-03-21T21:48:22.714Z,68.79
2019-03-21T21:50:53.932Z,69.30
2019-03-21T21:53:26.137Z,69.21
2019-03-21T21:55:57.355Z,69.06
2019-03-21T21:58:29.220Z,69.22
2019-03-21T22:01:02.560Z,69.65
2019-03-21T22:03:33.762Z,69.68
2019-03-21T22:06:06.291Z,69.70
2019-03-21T22:08:52.749Z,69.53
2019-03-21T22:11:29.015Z,69.49
2019-03-21T22:14:14.157Z,69.55
2019-03-21T22:16:45.788Z,69.74
2019-03-21T22:19:17.386Z,70.16
2019-03-21T22:21:55.315Z,70.45
2019-03-21T22:24:26.385Z,70.23
2019-03-21T22:26:57.744Z,70.29
2019-03-21T22:29:30.057Z,70.67
2019-03-21T22:32:03.214Z,70.43
2019-03-21T22:34:34.630Z,70.40
2019-03-21T22:37:06.240Z,70.73
2019-03-21T22:39:38.062Z,70.59
2019-03-21T22:42:09.866Z,70.78
2019-03-21T22:44:44.444Z,71.10
2019-03-21T22:47:21.856Z,71.12
2019-03-21T22:49:53.712Z,71.16
2019-03-21T22:52:45.589Z,71.32
2019-03-21T22:55:21.307Z,71.58
2019-03-21T22:57:55.844Z,71.26
2019-03-21T23:00:43.378Z,71.34
2019-03-21T23:03:16.352Z,71.59
2019-03-21T23:05:48.559Z,71.71
2019-03-21T23:08:19.796Z,71.80
2019-03-21T23:10:57.937Z,71.82
2019-03-21T23:13:34.037Z,71.59
2019-03-21T23:16:05.359Z,71.78
2019-03-21T23:18:39.585Z,71.99
2019-03-21T23:21:28.892Z,72.03
2019-03-21T23:24:04.799Z,72.32
2019-03-21T23:26:37.064Z,72.66
2019-03-21T23:29:15.308Z,73.25
2019-03-21T23:32:00.138Z,72.75
2019-03-21T23:34:31.388Z,72.58
2019-03-21T23:37:12.682Z,72.55
2019-03-21T23:39:44.848Z,72.70
2019-03-21T23:42:42.932Z,73.09
2019-03-21T23:45:14.421Z,73.19
2019-03-21T23:47:45.694Z,73.44
2019-03-21T23:50:17.093Z,73.33
2019-03-21T23:52:48.597Z,73.51
2019-03-21T23:55:20.072Z,73.87
2019-03-21T23:57:52.307Z,74.15
